sensor_id;sensor_type;location;lat;lon;timestamp;pressure;altitude;pressure_sealevel;temperature;humidity
12468;BME280;57850;52.922;6.256;2023-02-12T00:00:51;104102.13;;;9.39;nan
12468;BME280;57850;52.922;6.256;2023-02-12T00:03:17;104098.81;;;9.46;nan
12468;BME280;57850;52.922;6.256;2023-02-12T00:05:44;104095.38;;;9.50;nan
12468;BME280;57850;52.922;6.256;2023-02-12T00:08:11;104090.13;;;9.47;nan
12468;BME280;57850;52.922;6.256;2023-02-12T00:10:39;104103.53;;;9.23;nan
12468;BME280;57850;52.922;6.256;2023-02-12T00:13:07;104100.16;;;9.29;nan
12468;BME280;57850;52.922;6.256;2023-02-12T00:15:34;104096.72;;;9.30;nan
12468;BME280;57850;52.922;6.256;2023-02-12T00:18:04;104103.34;;;9.15;nan
12468;BME280;57850;52.922;6.256;2023-02-12T00:20:31;104083.09;;;9.43;nan
12468;BME280;57850;52.922;6.256;2023-02-12T00:22:57;104105.88;;;9.12;nan
12468;BME280;57850;52.922;6.256;2023-02-12T00:25:24;104090.44;;;9.20;nan
12468;BME280;57850;52.922;6.256;2023-02-12T00:27:51;104098.38;;;9.26;nan
12468;BME280;57850;52.922;6.256;2023-02-12T00:30:17;104108.34;;;9.05;nan
12468;BME280;57850;52.922;6.256;2023-02-12T00:32:44;104091.53;;;9.31;nan
12468;BME280;57850;52.922;6.256;2023-02-12T00:35:12;104097.56;;;9.29;nan
12468;BME280;57850;52.922;6.256;2023-02-12T00:37:38;104106.97;;;9.22;nan
12468;BME280;57850;52.922;6.256;2023-02-12T00:40:06;104115.97;;;8.97;nan
12468;BME280;57850;52.922;6.256;2023-02-12T00:42:33;104109.91;;;8.98;nan
12468;BME280;57850;52.922;6.256;2023-02-12T00:44:59;104091.63;;;9.36;nan
12468;BME280;57850;52.922;6.256;2023-02-12T00:47:29;104087.91;;;9.25;nan
12468;BME280;57850;52.922;6.256;2023-02-12T00:49:56;104084.56;;;9.30;nan
12468;BME280;57850;52.922;6.256;2023-02-12T00:52:24;104091.31;;;9.21;nan
12468;BME280;57850;52.922;6.256;2023-02-12T00:54:50;104089.75;;;9.29;nan
12468;BME280;57850;52.922;6.256;2023-02-12T00:57:17;104099.59;;;9.03;nan
12468;BME280;57850;52.922;6.256;2023-02-12T00:59:43;104100.53;;;9.06;nan
12468;BME280;57850;52.922;6.256;2023-02-12T01:02:10;104095.19;;;9.00;nan
12468;BME280;57850;52.922;6.256;2023-02-12T01:04:36;104095.69;;;9.23;nan
12468;BME280;57850;52.922;6.256;2023-02-12T01:07:03;104114.09;;;8.92;nan
12468;BME280;57850;52.922;6.256;2023-02-12T01:09:31;104116.38;;;8.78;nan
12468;BME280;57850;52.922;6.256;2023-02-12T01:11:58;104113.69;;;8.75;nan
12468;BME280;57850;52.922;6.256;2023-02-12T01:14:24;104097.69;;;8.96;nan
12468;BME280;57850;52.922;6.256;2023-02-12T01:16:51;104100.28;;;8.96;nan
12468;BME280;57850;52.922;6.256;2023-02-12T01:19:17;104082.75;;;9.26;nan
12468;BME280;57850;52.922;6.256;2023-02-12T01:21:44;104078.50;;;9.31;nan
12468;BME280;57850;52.922;6.256;2023-02-12T01:24:14;104104.72;;;9.00;nan
12468;BME280;57850;52.922;6.256;2023-02-12T01:26:42;104095.41;;;9.09;nan
12468;BME280;57850;52.922;6.256;2023-02-12T01:29:28;104093.91;;;9.21;nan
12468;BME280;57850;52.922;6.256;2023-02-12T01:31:55;104128.63;;;8.48;nan
12468;BME280;57850;52.922;6.256;2023-02-12T01:34:22;104090.88;;;9.02;nan
12468;BME280;57850;52.922;6.256;2023-02-12T01:36:49;104091.63;;;8.95;nan
12468;BME280;57850;52.922;6.256;2023-02-12T01:39:16;104095.06;;;8.94;nan
12468;BME280;57850;52.922;6.256;2023-02-12T01:41:44;104084.91;;;9.06;nan
12468;BME280;57850;52.922;6.256;2023-02-12T01:44:14;104086.53;;;9.01;nan
12468;BME280;57850;52.922;6.256;2023-02-12T01:46:55;104100.72;;;8.77;nan
12468;BME280;57850;52.922;6.256;2023-02-12T01:49:25;104101.44;;;8.71;nan
12468;BME280;57850;52.922;6.256;2023-02-12T01:51:58;104076.13;;;9.01;nan
12468;BME280;57850;52.922;6.256;2023-02-12T01:54:29;104085.09;;;9.15;nan
12468;BME280;57850;52.922;6.256;2023-02-12T01:56:58;104086.53;;;9.01;nan
12468;BME280;57850;52.922;6.256;2023-02-12T01:59:25;104100.25;;;8.58;nan
12468;BME280;57850;52.922;6.256;2023-02-12T02:01:53;104092.88;;;8.75;nan
12468;BME280;57850;52.922;6.256;2023-02-12T02:04:23;104075.25;;;9.01;nan
12468;BME280;57850;52.922;6.256;2023-02-12T02:06:56;104080.38;;;8.98;nan
12468;BME280;57850;52.922;6.256;2023-02-12T02:09:24;104074.81;;;9.22;nan
12468;BME280;57850;52.922;6.256;2023-02-12T02:11:50;104069.72;;;9.28;nan
12468;BME280;57850;52.922;6.256;2023-02-12T02:14:36;104086.88;;;9.17;nan
12468;BME280;57850;52.922;6.256;2023-02-12T02:17:23;104093.78;;;8.77;nan
12468;BME280;57850;52.922;6.256;2023-02-12T02:22:42;104060.06;;;9.22;nan
12468;BME280;57850;52.922;6.256;2023-02-12T02:25:56;104069.53;;;9.19;nan
12468;BME280;57850;52.922;6.256;2023-02-12T02:28:36;104076.94;;;8.99;nan
12468;BME280;57850;52.922;6.256;2023-02-12T02:31:16;104065.38;;;8.86;nan
12468;BME280;57850;52.922;6.256;2023-02-12T02:33:51;104062.16;;;8.99;nan
12468;BME280;57850;52.922;6.256;2023-02-12T02:36:26;104072.88;;;8.74;nan
12468;BME280;57850;52.922;6.256;2023-02-12T02:38:57;104052.00;;;9.11;nan
12468;BME280;57850;52.922;6.256;2023-02-12T02:41:29;104050.41;;;9.17;nan
12468;BME280;57850;52.922;6.256;2023-02-12T02:44:02;104046.97;;;9.18;nan
12468;BME280;57850;52.922;6.256;2023-02-12T02:46:35;104044.31;;;9.16;nan
12468;BME280;57850;52.922;6.256;2023-02-12T02:49:08;104054.78;;;9.19;nan
12468;BME280;57850;52.922;6.256;2023-02-12T02:51:39;104066.53;;;8.99;nan
12468;BME280;57850;52.922;6.256;2023-02-12T02:54:10;104054.41;;;9.01;nan
12468;BME280;57850;52.922;6.256;2023-02-12T02:56:40;104062.28;;;9.04;nan
12468;BME280;57850;52.922;6.256;2023-02-12T02:59:11;104061.53;;;9.09;nan
12468;BME280;57850;52.922;6.256;2023-02-12T03:01:44;104057.44;;;9.21;nan
12468;BME280;57850;52.922;6.256;2023-02-12T03:04:16;104059.19;;;9.22;nan
12468;BME280;57850;52.922;6.256;2023-02-12T03:06:51;104082.16;;;8.99;nan
12468;BME280;57850;52.922;6.256;2023-02-12T03:09:23;104070.09;;;9.04;nan
12468;BME280;57850;52.922;6.256;2023-02-12T03:11:52;104080.09;;;8.86;nan
12468;BME280;57850;52.922;6.256;2023-02-12T03:14:24;104066.53;;;8.99;nan
12468;BME280;57850;52.922;6.256;2023-02-12T03:16:57;104062.16;;;8.99;nan
12468;BME280;57850;52.922;6.256;2023-02-12T03:19:28;104067.31;;;8.96;nan
12468;BME280;57850;52.922;6.256;2023-02-12T03:21:59;104071.28;;;8.79;nan
12468;BME280;57850;52.922;6.256;2023-02-12T03:24:30;104067.38;;;8.99;nan
12468;BME280;57850;52.922;6.256;2023-02-12T03:27:05;104075.84;;;8.89;nan
12468;BME280;57850;52.922;6.256;2023-02-12T03:29:33;104065.56;;;8.95;nan
12468;BME280;57850;52.922;6.256;2023-02-12T03:32:09;104061.47;;;8.33;nan
12468;BME280;57850;52.922;6.256;2023-02-12T03:34:46;104061.59;;;8.74;nan
12468;BME280;57850;52.922;6.256;2023-02-12T03:37:18;104071.53;;;8.54;nan
12468;BME280;57850;52.922;6.256;2023-02-12T03:39:52;104069.03;;;8.58;nan
12468;BME280;57850;52.922;6.256;2023-02-12T03:42:29;104066.75;;;8.72;nan
12468;BME280;57850;52.922;6.256;2023-02-12T03:45:00;104064.41;;;8.83;nan
12468;BME280;57850;52.922;6.256;2023-02-12T03:47:38;104068.13;;;8.94;nan
12468;BME280;57850;52.922;6.256;2023-02-12T03:50:11;104083.66;;;8.52;nan
12468;BME280;57850;52.922;6.256;2023-02-12T03:52:39;104086.94;;;8.45;nan
12468;BME280;57850;52.922;6.256;2023-02-12T03:55:08;104072.31;;;8.87;nan
12468;BME280;57850;52.922;6.256;2023-02-12T03:57:38;104097.56;;;8.54;nan
12468;BME280;57850;52.922;6.256;2023-02-12T04:00:09;104080.03;;;8.83;nan
12468;BME280;57850;52.922;6.256;2023-02-12T04:02:37;104096.09;;;8.65;nan
12468;BME280;57850;52.922;6.256;2023-02-12T04:05:04;104103.00;;;8.63;nan
12468;BME280;57850;52.922;6.256;2023-02-12T04:07:31;104096.63;;;8.86;nan
12468;BME280;57850;52.922;6.256;2023-02-12T04:09:58;104111.75;;;8.67;nan
12468;BME280;57850;52.922;6.256;2023-02-12T04:12:34;104100.69;;;8.75;nan
12468;BME280;57850;52.922;6.256;2023-02-12T04:15:19;104091.91;;;8.72;nan
12468;BME280;57850;52.922;6.256;2023-02-12T04:18:00;104110.44;;;8.48;nan
12468;BME280;57850;52.922;6.256;2023-02-12T04:20:40;104096.38;;;8.77;nan
12468;BME280;57850;52.922;6.256;2023-02-12T04:23:16;104098.16;;;8.78;nan
12468;BME280;57850;52.922;6.256;2023-02-12T04:25:54;104100.00;;;8.84;nan
12468;BME280;57850;52.922;6.256;2023-02-12T04:28:36;104109.56;;;8.83;nan
12468;BME280;57850;52.922;6.256;2023-02-12T04:31:14;104106.22;;;8.89;nan
12468;BME280;57850;52.922;6.256;2023-02-12T04:33:53;104105.25;;;8.85;nan
12468;BME280;57850;52.922;6.256;2023-02-12T04:36:27;104112.88;;;8.78;nan
12468;BME280;57850;52.922;6.256;2023-02-12T04:38:59;104110.53;;;8.88;nan
12468;BME280;57850;52.922;6.256;2023-02-12T04:41:29;104126.69;;;8.74;nan
12468;BME280;57850;52.922;6.256;2023-02-12T04:43:56;104114.78;;;8.85;nan
12468;BME280;57850;52.922;6.256;2023-02-12T04:46:23;104120.38;;;8.64;nan
12468;BME280;57850;52.922;6.256;2023-02-12T04:48:53;104115.81;;;8.55;nan
12468;BME280;57850;52.922;6.256;2023-02-12T04:51:20;104100.97;;;8.87;nan
12468;BME280;57850;52.922;6.256;2023-02-12T04:53:47;104107.16;;;8.92;nan
12468;BME280;57850;52.922;6.256;2023-02-12T04:56:14;104102.09;;;8.98;nan
12468;BME280;57850;52.922;6.256;2023-02-12T04:58:41;104101.28;;;9.01;nan
12468;BME280;57850;52.922;6.256;2023-02-12T05:01:08;104103.91;;;9.02;nan
12468;BME280;57850;52.922;6.256;2023-02-12T05:03:35;104115.06;;;8.95;nan
12468;BME280;57850;52.922;6.256;2023-02-12T05:06:04;104108.41;;;9.09;nan
12468;BME280;57850;52.922;6.256;2023-02-12T05:08:31;104121.56;;;8.77;nan
12468;BME280;57850;52.922;6.256;2023-02-12T05:11:02;104120.41;;;8.66;nan
12468;BME280;57850;52.922;6.256;2023-02-12T05:13:29;104111.41;;;8.89;nan
12468;BME280;57850;52.922;6.256;2023-02-12T05:15:55;104110.19;;;8.73;nan
12468;BME280;57850;52.922;6.256;2023-02-12T05:18:23;104122.91;;;8.61;nan
12468;BME280;57850;52.922;6.256;2023-02-12T05:20:54;104124.09;;;8.74;nan
12468;BME280;57850;52.922;6.256;2023-02-12T05:23:22;104129.69;;;8.56;nan
12468;BME280;57850;52.922;6.256;2023-02-12T05:25:51;104120.81;;;8.82;nan
12468;BME280;57850;52.922;6.256;2023-02-12T05:28:17;104122.84;;;8.59;nan
12468;BME280;57850;52.922;6.256;2023-02-12T05:30:44;104115.47;;;8.76;nan
12468;BME280;57850;52.922;6.256;2023-02-12T05:33:10;104111.34;;;8.86;nan
12468;BME280;57850;52.922;6.256;2023-02-12T05:35:37;104104.72;;;9.00;nan
12468;BME280;57850;52.922;6.256;2023-02-12T05:38:03;104116.44;;;8.81;nan
12468;BME280;57850;52.922;6.256;2023-02-12T05:40:31;104132.31;;;8.56;nan
12468;BME280;57850;52.922;6.256;2023-02-12T05:42:58;104124.63;;;8.60;nan
12468;BME280;57850;52.922;6.256;2023-02-12T05:45:25;104105.34;;;8.88;nan
12468;BME280;57850;52.922;6.256;2023-02-12T05:47:53;104122.53;;;8.82;nan
12468;BME280;57850;52.922;6.256;2023-02-12T05:50:20;104132.66;;;8.70;nan
12468;BME280;57850;52.922;6.256;2023-02-12T05:52:47;104128.34;;;8.70;nan
12468;BME280;57850;52.922;6.256;2023-02-12T05:55:13;104130.63;;;8.58;nan
12468;BME280;57850;52.922;6.256;2023-02-12T05:57:41;104143.88;;;8.33;nan
12468;BME280;57850;52.922;6.256;2023-02-12T06:00:09;104122.31;;;8.73;nan
12468;BME280;57850;52.922;6.256;2023-02-12T06:02:36;104123.00;;;8.66;nan
12468;BME280;57850;52.922;6.256;2023-02-12T06:05:03;104106.97;;;8.85;nan
12468;BME280;57850;52.922;6.256;2023-02-12T06:07:30;104110.59;;;8.91;nan
12468;BME280;57850;52.922;6.256;2023-02-12T06:09:56;104111.41;;;8.89;nan
12468;BME280;57850;52.922;6.256;2023-02-12T06:12:24;104109.59;;;8.85;nan
12468;BME280;57850;52.922;6.256;2023-02-12T06:14:52;104096.28;;;9.11;nan
12468;BME280;57850;52.922;6.256;2023-02-12T06:17:18;104113.16;;;8.90;nan
12468;BME280;57850;52.922;6.256;2023-02-12T06:19:45;104107.72;;;9.17;nan
12468;BME280;57850;52.922;6.256;2023-02-12T06:22:11;104115.28;;;9.06;nan
12468;BME280;57850;52.922;6.256;2023-02-12T06:24:38;104101.13;;;9.34;nan
12468;BME280;57850;52.922;6.256;2023-02-12T06:27:04;104115.53;;;9.17;nan
12468;BME280;57850;52.922;6.256;2023-02-12T06:29:31;104132.19;;;8.87;nan
12468;BME280;57850;52.922;6.256;2023-02-12T06:31:59;104111.09;;;9.12;nan
12468;BME280;57850;52.922;6.256;2023-02-12T06:34:25;104128.09;;;8.97;nan
12468;BME280;57850;52.922;6.256;2023-02-12T06:36:52;104131.03;;;9.10;nan
12468;BME280;57850;52.922;6.256;2023-02-12T06:39:19;104134.31;;;9.02;nan
12468;BME280;57850;52.922;6.256;2023-02-12T06:41:46;104124.88;;;9.08;nan
12468;BME280;57850;52.922;6.256;2023-02-12T06:44:12;104129.66;;;8.89;nan
12468;BME280;57850;52.922;6.256;2023-02-12T06:46:39;104114.53;;;9.11;nan
12468;BME280;57850;52.922;6.256;2023-02-12T06:49:09;104112.38;;;9.31;nan
12468;BME280;57850;52.922;6.256;2023-02-12T06:51:36;104133.13;;;8.89;nan
12468;BME280;57850;52.922;6.256;2023-02-12T06:54:11;104136.13;;;9.06;nan
12468;BME280;57850;52.922;6.256;2023-02-12T06:56:38;104134.94;;;8.92;nan
12468;BME280;57850;52.922;6.256;2023-02-12T06:59:04;104107.41;;;9.42;nan
12468;BME280;57850;52.922;6.256;2023-02-12T07:01:31;104146.38;;;9.00;nan
12468;BME280;57850;52.922;6.256;2023-02-12T07:03:59;104153.31;;;8.99;nan
12468;BME280;57850;52.922;6.256;2023-02-12T07:06:29;104130.81;;;9.40;nan
12468;BME280;57850;52.922;6.256;2023-02-12T07:08:56;104136.19;;;9.48;nan
12468;BME280;57850;52.922;6.256;2023-02-12T07:11:23;104133.78;;;9.57;nan
12468;BME280;57850;52.922;6.256;2023-02-12T07:13:50;104136.56;;;9.66;nan
12468;BME280;57850;52.922;6.256;2023-02-12T07:16:17;104160.44;;;9.44;nan
12468;BME280;57850;52.922;6.256;2023-02-12T07:18:44;104154.38;;;9.45;nan
12468;BME280;57850;52.922;6.256;2023-02-12T07:21:13;104153.66;;;9.52;nan
12468;BME280;57850;52.922;6.256;2023-02-12T07:23:44;104150.44;;;9.65;nan
12468;BME280;57850;52.922;6.256;2023-02-12T07:26:12;104152.13;;;9.61;nan
12468;BME280;57850;52.922;6.256;2023-02-12T07:28:39;104161.63;;;9.59;nan
12468;BME280;57850;52.922;6.256;2023-02-12T07:31:06;104161.75;;;9.65;nan
12468;BME280;57850;52.922;6.256;2023-02-12T07:33:34;104170.91;;;9.47;nan
12468;BME280;57850;52.922;6.256;2023-02-12T07:36:00;104172.63;;;9.45;nan
12468;BME280;57850;52.922;6.256;2023-02-12T07:38:28;104161.00;;;9.71;nan
12468;BME280;57850;52.922;6.256;2023-02-12T07:41:05;104167.84;;;9.66;nan
12468;BME280;57850;52.922;6.256;2023-02-12T07:43:31;104174.03;;;9.69;nan
12468;BME280;57850;52.922;6.256;2023-02-12T07:46:05;104160.34;;;9.81;nan
12468;BME280;57850;52.922;6.256;2023-02-12T07:48:31;104167.22;;;9.78;nan
12468;BME280;57850;52.922;6.256;2023-02-12T07:51:02;104169.16;;;9.86;nan
12468;BME280;57850;52.922;6.256;2023-02-12T07:53:29;104167.41;;;9.87;nan
12468;BME280;57850;52.922;6.256;2023-02-12T07:56:03;104163.19;;;9.93;nan
12468;BME280;57850;52.922;6.256;2023-02-12T07:58:30;104158.97;;;10.00;nan
12468;BME280;57850;52.922;6.256;2023-02-12T08:00:59;104167.50;;;9.90;nan
12468;BME280;57850;52.922;6.256;2023-02-12T08:03:26;104173.97;;;9.66;nan
12468;BME280;57850;52.922;6.256;2023-02-12T08:05:54;104177.72;;;9.81;nan
12468;BME280;57850;52.922;6.256;2023-02-12T08:08:20;104161.53;;;9.97;nan
12468;BME280;57850;52.922;6.256;2023-02-12T08:10:47;104163.19;;;9.93;nan
12468;BME280;57850;52.922;6.256;2023-02-12T08:13:15;104167.13;;;10.13;nan
12468;BME280;57850;52.922;6.256;2023-02-12T08:15:41;104167.13;;;10.13;nan
12468;BME280;57850;52.922;6.256;2023-02-12T08:18:08;104173.03;;;10.06;nan
12468;BME280;57850;52.922;6.256;2023-02-12T08:20:34;104174.44;;;9.91;nan
12468;BME280;57850;52.922;6.256;2023-02-12T08:23:01;104169.47;;;10.03;nan
12468;BME280;57850;52.922;6.256;2023-02-12T08:25:27;104160.34;;;10.25;nan
12468;BME280;57850;52.922;6.256;2023-02-12T08:27:54;104168.13;;;10.20;nan
12468;BME280;57850;52.922;6.256;2023-02-12T08:30:22;104169.13;;;10.28;nan
12468;BME280;57850;52.922;6.256;2023-02-12T08:32:49;104172.50;;;10.23;nan
12468;BME280;57850;52.922;6.256;2023-02-12T08:35:15;104171.66;;;10.24;nan
12468;BME280;57850;52.922;6.256;2023-02-12T08:37:42;104168.44;;;10.37;nan
12468;BME280;57850;52.922;6.256;2023-02-12T08:40:10;104171.72;;;10.27;nan
12468;BME280;57850;52.922;6.256;2023-02-12T08:42:38;104182.00;;;10.17;nan
12468;BME280;57850;52.922;6.256;2023-02-12T08:45:05;104165.25;;;10.54;nan
12468;BME280;57850;52.922;6.256;2023-02-12T08:47:33;104148.41;;;10.88;nan
12468;BME280;57850;52.922;6.256;2023-02-12T08:49:59;104163.09;;;10.80;nan
12468;BME280;57850;52.922;6.256;2023-02-12T08:52:26;104160.63;;;10.91;nan
12468;BME280;57850;52.922;6.256;2023-02-12T08:54:55;104170.25;;;10.92;nan
12468;BME280;57850;52.922;6.256;2023-02-12T08:57:21;104169.25;;;10.85;nan
12468;BME280;57850;52.922;6.256;2023-02-12T08:59:48;104167.72;;;10.98;nan
12468;BME280;57850;52.922;6.256;2023-02-12T09:02:14;104173.63;;;10.86;nan
12468;BME280;57850;52.922;6.256;2023-02-12T09:04:42;104169.06;;;10.74;nan
12468;BME280;57850;52.922;6.256;2023-02-12T09:07:09;104168.28;;;10.77;nan
12468;BME280;57850;52.922;6.256;2023-02-12T09:09:35;104159.66;;;10.84;nan
12468;BME280;57850;52.922;6.256;2023-02-12T09:12:02;104157.44;;;11.10;nan
12468;BME280;57850;52.922;6.256;2023-02-12T09:14:29;104174.34;;;10.77;nan
12468;BME280;57850;52.922;6.256;2023-02-12T09:16:56;104167.94;;;11.13;nan
12468;BME280;57850;52.922;6.256;2023-02-12T09:19:23;104174.31;;;11.30;nan
12468;BME280;57850;52.922;6.256;2023-02-12T09:21:52;104181.75;;;11.04;nan
12468;BME280;57850;52.922;6.256;2023-02-12T09:24:19;104193.09;;;11.06;nan
12468;BME280;57850;52.922;6.256;2023-02-12T09:26:45;104164.75;;;11.32;nan
12468;BME280;57850;52.922;6.256;2023-02-12T09:29:12;104166.72;;;11.48;nan
12468;BME280;57850;52.922;6.256;2023-02-12T09:31:38;104180.03;;;11.05;nan
12468;BME280;57850;52.922;6.256;2023-02-12T09:34:05;104170.72;;;11.23;nan
12468;BME280;57850;52.922;6.256;2023-02-12T09:36:33;104157.31;;;11.62;nan
12468;BME280;57850;52.922;6.256;2023-02-12T09:39:02;104158.50;;;11.86;nan
12468;BME280;57850;52.922;6.256;2023-02-12T09:44:13;104169.13;;;11.35;nan
12468;BME280;57850;52.922;6.256;2023-02-12T09:46:45;104156.59;;;11.71;nan
12468;BME280;57850;52.922;6.256;2023-02-12T09:49:20;104153.16;;;11.76;nan
12468;BME280;57850;52.922;6.256;2023-02-12T09:51:50;104149.88;;;11.94;nan
12468;BME280;57850;52.922;6.256;2023-02-12T09:54:22;104121.00;;;12.80;nan
12468;BME280;57850;52.922;6.256;2023-02-12T09:56:53;104155.59;;;12.40;nan
12468;BME280;57850;52.922;6.256;2023-02-12T09:59:28;104149.50;;;12.44;nan
12468;BME280;57850;52.922;6.256;2023-02-12T10:01:56;104152.06;;;12.38;nan
12468;BME280;57850;52.922;6.256;2023-02-12T10:04:27;104147.16;;;12.71;nan
12468;BME280;57850;52.922;6.256;2023-02-12T10:07:02;104160.91;;;12.46;nan
12468;BME280;57850;52.922;6.256;2023-02-12T10:09:46;104154.81;;;12.47;nan
12468;BME280;57850;52.922;6.256;2023-02-12T10:12:23;104166.63;;;12.10;nan
12468;BME280;57850;52.922;6.256;2023-02-12T10:15:16;104148.75;;;12.57;nan
12468;BME280;57850;52.922;6.256;2023-02-12T10:17:58;104152.28;;;12.60;nan
12468;BME280;57850;52.922;6.256;2023-02-12T10:20:39;104154.94;;;12.62;nan
12468;BME280;57850;52.922;6.256;2023-02-12T10:23:24;104167.72;;;12.31;nan
12468;BME280;57850;52.922;6.256;2023-02-12T10:26:00;104151.31;;;12.46;nan
12468;BME280;57850;52.922;6.256;2023-02-12T10:28:33;104158.44;;;12.62;nan
12468;BME280;57850;52.922;6.256;2023-02-12T10:31:03;104180.69;;;12.19;nan
12468;BME280;57850;52.922;6.256;2023-02-12T10:33:34;104159.97;;;12.44;nan
12468;BME280;57850;52.922;6.256;2023-02-12T10:36:10;104170.38;;;12.33;nan
12468;BME280;57850;52.922;6.256;2023-02-12T10:38:45;104138.53;;;12.88;nan
12468;BME280;57850;52.922;6.256;2023-02-12T10:41:16;104149.00;;;12.85;nan
12468;BME280;57850;52.922;6.256;2023-02-12T10:43:43;104144.75;;;13.04;nan
12468;BME280;57850;52.922;6.256;2023-02-12T10:46:12;104146.50;;;13.02;nan
12468;BME280;57850;52.922;6.256;2023-02-12T10:48:41;104166.34;;;12.70;nan
12468;BME280;57850;52.922;6.256;2023-02-12T10:51:33;104161.19;;;12.77;nan
12468;BME280;57850;52.922;6.256;2023-02-12T10:54:30;104168.09;;;12.71;nan
12468;BME280;57850;52.922;6.256;2023-02-12T10:57:05;104169.06;;;12.80;nan
12468;BME280;57850;52.922;6.256;2023-02-12T10:59:33;104173.25;;;12.63;nan
12468;BME280;57850;52.922;6.256;2023-02-12T11:01:59;104145.66;;;13.08;nan
12468;BME280;57850;52.922;6.256;2023-02-12T11:04:28;104142.28;;;13.21;nan
12468;BME280;57850;52.922;6.256;2023-02-12T11:06:57;104157.81;;;12.95;nan
12468;BME280;57850;52.922;6.256;2023-02-12T11:09:28;104153.38;;;12.88;nan
12468;BME280;57850;52.922;6.256;2023-02-12T11:11:55;104155.97;;;12.83;nan
12468;BME280;57850;52.922;6.256;2023-02-12T11:14:23;104161.31;;;12.96;nan
12468;BME280;57850;52.922;6.256;2023-02-12T11:16:54;104148.22;;;13.03;nan
12468;BME280;57850;52.922;6.256;2023-02-12T11:19:22;104144.84;;;13.12;nan
12468;BME280;57850;52.922;6.256;2023-02-12T11:21:49;104151.75;;;13.07;nan
12468;BME280;57850;52.922;6.256;2023-02-12T11:24:30;104150.81;;;12.93;nan
12468;BME280;57850;52.922;6.256;2023-02-12T11:27:21;104147.47;;;13.12;nan
12468;BME280;57850;52.922;6.256;2023-02-12T11:30:11;104138.81;;;13.25;nan
12468;BME280;57850;52.922;6.256;2023-02-12T11:32:38;104139.72;;;13.33;nan
12468;BME280;57850;52.922;6.256;2023-02-12T11:35:11;104136.28;;;13.40;nan
12468;BME280;57850;52.922;6.256;2023-02-12T11:37:41;104128.47;;;13.55;nan
12468;BME280;57850;52.922;6.256;2023-02-12T11:40:15;104128.50;;;13.61;nan
12468;BME280;57850;52.922;6.256;2023-02-12T11:42:47;104136.13;;;13.14;nan
12468;BME280;57850;52.922;6.256;2023-02-12T11:45:18;104128.41;;;13.40;nan
12468;BME280;57850;52.922;6.256;2023-02-12T11:47:46;104140.38;;;13.06;nan
12468;BME280;57850;52.922;6.256;2023-02-12T11:50:21;104132.66;;;13.15;nan
12468;BME280;57850;52.922;6.256;2023-02-12T11:52:51;104155.00;;;12.71;nan
12468;BME280;57850;52.922;6.256;2023-02-12T11:55:21;104136.91;;;13.03;nan
12468;BME280;57850;52.922;6.256;2023-02-12T11:57:50;104152.22;;;12.54;nan
12468;BME280;57850;52.922;6.256;2023-02-12T12:00:21;104134.97;;;12.77;nan
12468;BME280;57850;52.922;6.256;2023-02-12T12:02:55;104126.47;;;13.10;nan
12468;BME280;57850;52.922;6.256;2023-02-12T12:05:29;104130.00;;;13.12;nan
12468;BME280;57850;52.922;6.256;2023-02-12T12:08:03;104154.06;;;12.64;nan
12468;BME280;57850;52.922;6.256;2023-02-12T12:10:34;104141.13;;;12.84;nan
12468;BME280;57850;52.922;6.256;2023-02-12T12:13:09;104138.56;;;12.90;nan
12468;BME280;57850;52.922;6.256;2023-02-12T12:15:42;104131.72;;;13.09;nan
12468;BME280;57850;52.922;6.256;2023-02-12T12:18:31;104110.88;;;13.33;nan
12468;BME280;57850;52.922;6.256;2023-02-12T12:21:24;104104.72;;;13.26;nan
12468;BME280;57850;52.922;6.256;2023-02-12T12:23:58;104089.16;;;13.73;nan
12468;BME280;57850;52.922;6.256;2023-02-12T12:26:28;104095.25;;;13.63;nan
12468;BME280;57850;52.922;6.256;2023-02-12T12:29:00;104103.00;;;13.34;nan
12468;BME280;57850;52.922;6.256;2023-02-12T12:31:33;104116.06;;;13.21;nan
12468;BME280;57850;52.922;6.256;2023-02-12T12:34:06;104095.25;;;13.69;nan
12468;BME280;57850;52.922;6.256;2023-02-12T12:39:47;104109.91;;;13.22;nan
12468;BME280;57850;52.922;6.256;2023-02-12T12:42:46;104100.41;;;13.36;nan
12468;BME280;57850;52.922;6.256;2023-02-12T12:45:38;104093.50;;;13.53;nan
12468;BME280;57850;52.922;6.256;2023-02-12T12:48:22;104085.63;;;13.62;nan
12468;BME280;57850;52.922;6.256;2023-02-12T12:51:02;104098.63;;;13.30;nan
12468;BME280;57850;52.922;6.256;2023-02-12T12:53:45;104090.00;;;13.60;nan
12468;BME280;57850;52.922;6.256;2023-02-12T12:56:23;104076.09;;;13.93;nan
12468;BME280;57850;52.922;6.256;2023-02-12T12:59:02;104083.88;;;13.64;nan
12468;BME280;57850;52.922;6.256;2023-02-12T13:01:43;104073.44;;;13.79;nan
12468;BME280;57850;52.922;6.256;2023-02-12T13:04:52;104111.47;;;12.89;nan
12468;BME280;57850;52.922;6.256;2023-02-12T13:07:37;104069.00;;;13.57;nan
12468;BME280;57850;52.922;6.256;2023-02-12T13:10:21;104067.28;;;13.62;nan
12468;BME280;57850;52.922;6.256;2023-02-12T13:13:21;104062.88;;;13.58;nan
12468;BME280;57850;52.922;6.256;2023-02-12T13:15:56;104070.72;;;13.46;nan
12468;BME280;57850;52.922;6.256;2023-02-12T13:18:34;104063.72;;;13.40;nan
12468;BME280;57850;52.922;6.256;2023-02-12T13:21:09;104082.88;;;13.27;nan
12468;BME280;57850;52.922;6.256;2023-02-12T13:23:45;104072.31;;;13.12;nan
12468;BME280;57850;52.922;6.256;2023-02-12T13:26:18;104074.91;;;13.11;nan
12468;BME280;57850;52.922;6.256;2023-02-12T13:28:50;104093.09;;;12.88;nan
12468;BME280;57850;52.922;6.256;2023-02-12T13:31:20;104086.16;;;12.98;nan
12468;BME280;57850;52.922;6.256;2023-02-12T13:33:51;104067.16;;;13.35;nan
12468;BME280;57850;52.922;6.256;2023-02-12T13:36:21;104083.66;;;13.11;nan
12468;BME280;57850;52.922;6.256;2023-02-12T13:38:52;104094.94;;;13.03;nan
12468;BME280;57850;52.922;6.256;2023-02-12T13:41:22;104081.84;;;13.03;nan
12468;BME280;57850;52.922;6.256;2023-02-12T13:44:00;104087.91;;;12.97;nan
12468;BME280;57850;52.922;6.256;2023-02-12T13:46:38;104086.19;;;12.99;nan